Time;durP1;ratioP1;P1;durP2;ratioP2;P2;SDS_P1;SDS_P2;PMS_P1;PMS_P2;Temp;Humidity;BMP_temperature;BMP_pressure;BME280_temperature;BME280_humidity;BME280_pressure;Samples;Min_cycle;Max_cycle;Signal;HPM_P1;HPM_P2
2022/04/20 00:00:28;;;;;;;8.80;6.68;;;;;;;-144.47;100.00;61586.06;6182100;23;20013;-75
2022/04/20 00:02:54;;;;;;;9.23;7.13;;;;;;;-144.47;100.00;61586.06;6182321;23;20012;-75
2022/04/20 00:05:19;;;;;;;9.18;6.85;;;;;;;-144.47;100.00;61586.06;6182179;23;20029;-75
2022/04/20 00:07:45;;;;;;;8.25;7.38;;;;;;;-144.47;100.00;61586.06;6182511;23;20091;-75
2022/04/20 00:10:10;;;;;;;8.73;6.63;;;;;;;-144.47;100.00;61586.06;6182636;23;20390;-75
2022/04/20 00:12:36;;;;;;;7.90;7.20;;;;;;;-144.47;100.00;61586.06;6182353;23;20009;-76
2022/04/20 00:15:01;;;;;;;7.13;6.53;;;;;;;-144.47;100.00;61586.06;6182583;23;20303;-75
2022/04/20 00:17:27;;;;;;;8.40;7.05;;;;;;;-144.47;100.00;61586.06;6181397;23;20095;-76
2022/04/20 00:19:52;;;;;;;8.30;6.90;;;;;;;-144.47;100.00;61586.06;6182486;23;20314;-73
2022/04/20 00:22:18;;;;;;;7.85;7.10;;;;;;;-144.47;100.00;61586.06;6181856;23;20008;-73
2022/04/20 00:25:09;;;;;;;8.25;7.25;;;;;;;-144.47;100.00;61586.06;6182710;23;20028;-73
2022/04/20 00:27:38;;;;;;;8.48;6.90;;;;;;;-144.47;100.00;61586.06;6181974;23;20013;-74
2022/04/20 00:30:12;;;;;;;9.50;7.72;;;;;;;-144.47;100.00;61586.06;6182724;23;20060;-75
2022/04/20 00:32:39;;;;;;;7.55;6.85;;;;;;;-144.47;100.00;61586.06;6155166;23;20350;-75
2022/04/20 00:35:06;;;;;;;8.00;7.20;;;;;;;-144.47;100.00;61586.06;6162912;23;20016;-75
2022/04/20 00:37:33;;;;;;;12.15;7.40;;;;;;;-144.47;100.00;61586.06;6188923;23;20074;-75
2022/04/20 00:39:59;;;;;;;9.32;8.27;;;;;;;-144.47;100.00;61586.06;6187718;23;20059;-74
2022/04/20 00:42:26;;;;;;;8.73;6.90;;;;;;;-144.47;100.00;61586.06;6182479;23;20040;-74
2022/04/20 00:44:52;;;;;;;8.55;6.55;;;;;;;-144.47;100.00;61586.06;6156323;23;20017;-74
2022/04/20 00:47:18;;;;;;;9.93;7.38;;;;;;;-144.47;100.00;61586.06;6181912;23;20321;-74
2022/04/20 00:49:47;;;;;;;8.02;7.25;;;;;;;-144.47;100.00;61586.06;6182531;23;20342;-74
2022/04/20 00:52:12;;;;;;;7.63;6.90;;;;;;;-144.47;100.00;61586.06;6156110;23;20151;-75
2022/04/20 00:54:38;;;;;;;9.20;7.32;;;;;;;-144.47;100.00;61586.06;6156052;23;20108;-73
2022/04/20 00:57:05;;;;;;;9.65;7.47;;;;;;;-144.47;100.00;61586.06;6156410;23;20041;-76
2022/04/20 00:59:34;;;;;;;9.35;6.93;;;;;;;-144.47;100.00;61586.06;6151142;23;20406;-75
2022/04/20 01:02:00;;;;;;;9.93;7.35;;;;;;;-144.47;100.00;61586.06;6179807;23;20009;-74
2022/04/20 01:04:27;;;;;;;8.07;7.38;;;;;;;-144.47;100.00;61586.06;6177927;23;20453;-74
2022/04/20 01:07:22;;;;;;;8.68;7.80;;;;;;;-144.47;100.00;61586.06;6077017;23;20019;-75
2022/04/20 01:10:15;;;;;;;10.65;7.25;;;;;;;-144.47;100.00;61586.06;6181006;23;20013;-74
2022/04/20 01:13:10;;;;;;;9.27;7.55;;;;;;;-144.47;100.00;61586.06;6158397;23;20009;-75
2022/04/20 01:15:55;;;;;;;9.18;7.47;;;;;;;-144.47;100.00;61586.06;6173904;23;20087;-75
2022/04/20 01:18:40;;;;;;;9.45;6.95;;;;;;;-144.47;100.00;61586.06;6181993;23;20015;-74
2022/04/20 01:21:26;;;;;;;12.07;8.93;;;;;;;-144.47;100.00;61586.06;6172631;23;20145;-75
2022/04/20 01:24:01;;;;;;;10.60;8.73;;;;;;;-144.47;100.00;61586.06;6184665;23;20028;-74
2022/04/20 01:26:46;;;;;;;12.77;9.32;;;;;;;-144.47;100.00;61586.06;6183101;23;20021;-75
2022/04/20 01:29:37;;;;;;;12.25;8.70;;;;;;;-144.47;100.00;61586.06;6182122;23;20013;-74
2022/04/20 01:32:25;;;;;;;11.05;7.53;;;;;;;-144.47;100.00;61586.06;6128973;23;20056;-74
2022/04/20 01:35:09;;;;;;;9.13;8.20;;;;;;;-144.47;100.00;61586.06;6181795;23;20442;-75
2022/04/20 01:37:34;;;;;;;10.10;8.60;;;;;;;-144.47;100.00;61586.06;6157332;23;20024;-73
2022/04/20 01:40:00;;;;;;;10.82;8.63;;;;;;;-144.47;100.00;61586.06;6182012;23;20013;-74
2022/04/20 01:42:25;;;;;;;13.30;9.02;;;;;;;-144.47;100.00;61586.06;6183838;23;20537;-74
2022/04/20 01:44:55;;;;;;;10.45;8.25;;;;;;;-144.47;100.00;61586.06;6157497;23;20067;-75
2022/04/20 01:47:55;;;;;;;;;;;;;;;-144.47;100.00;61586.06;6064904;23;20054;-74
2022/04/20 01:51:46;;;;;;;13.85;8.75;;;;;;;-144.47;100.00;61586.06;6172875;23;19931;-73
2022/04/20 01:53:47;;;;;;;9.63;8.73;;;;;;;-144.47;100.00;61586.06;6183322;23;20021;-75
2022/04/20 01:56:36;;;;;;;10.65;8.30;;;;;;;-144.47;100.00;61586.06;6168099;23;20021;-74
2022/04/20 01:59:27;;;;;;;11.00;8.52;;;;;;;-144.47;100.00;61586.06;6138240;23;20414;-74
2022/04/20 02:05:08;;;;;;;9.50;8.57;;;;;;;-144.47;100.00;61586.06;6182238;23;20045;-75
2022/04/20 02:07:35;;;;;;;11.25;8.40;;;;;;;-144.47;100.00;61586.06;6156397;23;20016;-74
2022/04/20 02:10:04;;;;;;;11.60;8.98;;;;;;;-144.47;100.00;61586.06;6157070;23;20044;-74
2022/04/20 02:12:29;;;;;;;9.68;8.52;;;;;;;-144.47;100.00;61586.06;6156761;23;20013;-76
2022/04/20 02:15:15;;;;;;;11.02;8.48;;;;;;;-144.47;100.00;61586.06;6182914;23;20021;-74
2022/04/20 02:17:59;;;;;;;10.43;8.68;;;;;;;-144.47;100.00;61586.06;6183694;23;20056;-74
2022/04/20 02:20:40;;;;;;;12.57;8.93;;;;;;;-144.47;100.00;61586.06;6181779;23;20032;-75
2022/04/20 02:23:06;;;;;;;11.40;8.68;;;;;;;-144.47;100.00;61586.06;6181441;23;20032;-75
2022/04/20 02:25:32;;;;;;;11.02;8.75;;;;;;;-144.47;100.00;61586.06;6181496;23;20013;-75
2022/04/20 02:27:57;;;;;;;9.98;8.23;;;;;;;-144.47;100.00;61586.06;6183624;23;20016;-73
2022/04/20 02:30:23;;;;;;;9.60;8.57;;;;;;;-144.47;100.00;61586.06;6157200;23;20087;-74
2022/04/20 02:32:48;;;;;;;8.82;7.85;;;;;;;-144.47;100.00;61586.06;6157711;23;20064;-74
2022/04/20 02:35:13;;;;;;;11.63;8.48;;;;;;;-144.47;100.00;61586.06;6158077;23;20024;-73
2022/04/20 02:37:39;;;;;;;13.20;9.07;;;;;;;-144.47;100.00;61586.06;6183944;23;20021;-74
2022/04/20 02:40:05;;;;;;;8.32;7.53;;;;;;;-144.47;100.00;61586.06;6183755;23;20326;-76
2022/04/20 02:42:31;;;;;;;8.55;7.07;;;;;;;-144.47;100.00;61586.06;6183192;23;20008;-74
2022/04/20 02:44:56;;;;;;;8.45;7.60;;;;;;;-144.47;100.00;61586.06;6183273;23;20013;-74
2022/04/20 02:47:23;;;;;;;8.77;7.00;;;;;;;-144.47;100.00;61586.06;6183005;23;20013;-73
2022/04/20 02:49:49;;;;;;;8.68;7.30;;;;;;;-144.47;100.00;61586.06;6183087;23;20013;-73
2022/04/20 02:52:14;;;;;;;8.65;7.90;;;;;;;-144.47;100.00;61586.06;6156647;23;20027;-73
2022/04/20 02:54:40;;;;;;;9.20;7.03;;;;;;;-144.47;100.00;61586.06;6181253;23;20050;-73
2022/04/20 02:57:06;;;;;;;8.35;7.43;;;;;;;-144.47;100.00;61586.06;6181947;23;20002;-76
2022/04/20 02:59:31;;;;;;;8.30;7.60;;;;;;;-144.47;100.00;61586.06;6156554;23;20084;-74
2022/04/20 03:02:00;;;;;;;9.25;8.45;;;;;;;-144.47;100.00;61586.06;6181771;23;20383;-75
2022/04/20 03:04:26;;;;;;;9.70;7.47;;;;;;;-144.47;100.00;61586.06;6180911;23;20104;-76
2022/04/20 03:06:52;;;;;;;8.23;7.53;;;;;;;-144.47;100.00;61586.06;6156750;23;20095;-74
2022/04/20 03:09:28;;;;;;;12.45;8.35;;;;;;;-144.47;100.00;61586.06;6156166;23;20005;-76
2022/04/20 03:11:54;;;;;;;9.27;8.38;;;;;;;-144.47;100.00;61586.06;6181300;23;20015;-74
2022/04/20 03:14:19;;;;;;;9.63;8.25;;;;;;;-144.47;100.00;61586.06;6180976;23;20083;-76
2022/04/20 03:16:46;;;;;;;10.27;8.45;;;;;;;-144.47;100.00;61586.06;6156509;23;20017;-75
2022/04/20 03:19:13;;;;;;;10.32;8.52;;;;;;;-144.47;100.00;61586.06;6180854;23;20040;-74
2022/04/20 03:21:39;;;;;;;10.40;8.15;;;;;;;-144.47;100.00;61586.06;6181100;23;20418;-76
2022/04/20 03:24:05;;;;;;;10.10;9.20;;;;;;;-144.47;100.00;61586.06;6181112;23;20104;-75
2022/04/20 03:27:06;;;;;;;9.20;8.27;;;;;;;-144.47;100.00;61586.06;6170943;23;20051;-74
2022/04/20 03:29:38;;;;;;;9.80;8.18;;;;;;;-144.47;100.00;61586.06;6156118;23;20402;-75
2022/04/20 03:32:09;;;;;;;9.52;8.57;;;;;;;-144.47;100.00;61586.06;6182790;23;20076;-74
2022/04/20 03:34:35;;;;;;;10.18;8.80;;;;;;;-144.47;100.00;61586.06;6180115;23;20027;-74
2022/04/20 03:37:00;;;;;;;10.57;8.52;;;;;;;-144.47;100.00;61586.06;6181133;23;20005;-74
2022/04/20 03:39:26;;;;;;;10.25;7.97;;;;;;;-144.47;100.00;61586.06;6180405;23;20111;-73
2022/04/20 03:41:51;;;;;;;10.02;8.25;;;;;;;-144.47;100.00;61586.06;6182443;23;20013;-74
2022/04/20 03:44:17;;;;;;;9.60;8.57;;;;;;;-144.47;100.00;61586.06;6182281;23;20013;-73
2022/04/20 03:46:42;;;;;;;11.35;7.93;;;;;;;-144.47;100.00;61586.06;6182761;23;20084;-74
2022/04/20 03:49:08;;;;;;;9.05;8.20;;;;;;;-144.47;100.00;61586.06;6156150;23;20370;-74
2022/04/20 03:51:33;;;;;;;10.55;8.48;;;;;;;-144.47;100.00;61586.06;6182340;23;20083;-74
2022/04/20 03:53:59;;;;;;;11.55;8.05;;;;;;;-144.47;100.00;61586.06;6181082;23;20031;-75
2022/04/20 03:57:03;;;;;;;9.00;8.05;;;;;;;-144.47;100.00;61586.06;6180083;23;20041;-74
2022/04/20 03:59:13;;;;;;;10.82;8.80;;;;;;;-144.47;100.00;61586.06;6155589;23;20009;-74
2022/04/20 04:01:39;;;;;;;10.02;8.45;;;;;;;-144.47;100.00;61586.06;6180618;23;20044;-75
2022/04/20 04:04:05;;;;;;;11.20;9.30;;;;;;;-144.47;100.00;61586.06;6182172;23;20032;-72
2022/04/20 04:06:32;;;;;;;9.77;8.82;;;;;;;-144.47;100.00;61586.06;6180588;23;20005;-75
2022/04/20 04:08:57;;;;;;;10.48;9.45;;;;;;;-144.47;100.00;61586.06;6180639;23;20047;-76
2022/04/20 04:11:23;;;;;;;12.40;9.88;;;;;;;-144.47;100.00;61586.06;6179822;23;20096;-75
2022/04/20 04:13:49;;;;;;;9.68;8.63;;;;;;;-144.47;100.00;61586.06;6182170;23;20136;-74
2022/04/20 04:16:14;;;;;;;12.70;10.25;;;;;;;-144.47;100.00;61586.06;6180381;23;20095;-74
2022/04/20 04:18:40;;;;;;;11.98;9.93;;;;;;;-144.47;100.00;61586.06;6155553;23;20013;-74
2022/04/20 04:21:08;;;;;;;10.45;9.35;;;;;;;-144.47;100.00;61586.06;6182355;23;20001;-74
2022/04/20 04:23:34;;;;;;;12.25;9.63;;;;;;;-144.47;100.00;61586.06;6180321;23;20351;-75
2022/04/20 04:26:21;;;;;;;13.48;9.20;;;;;;;-144.47;100.00;61586.06;6180189;23;20335;-74
2022/04/20 04:28:49;;;;;;;16.65;9.60;;;;;;;-144.47;100.00;61586.06;6180180;23;20020;-73
2022/04/20 04:31:15;;;;;;;13.45;10.10;;;;;;;-144.47;100.00;61586.06;6180217;23;20009;-74
2022/04/20 04:33:40;;;;;;;10.93;9.18;;;;;;;-144.47;100.00;61586.06;6155149;23;20048;-73
2022/04/20 04:36:07;;;;;;;12.00;9.65;;;;;;;-144.47;100.00;61586.06;6180788;23;20382;-75
2022/04/20 04:38:39;;;;;;;11.38;9.75;;;;;;;-144.47;100.00;61586.06;6180790;23;20408;-75
2022/04/20 04:41:06;;;;;;;12.63;10.50;;;;;;;-144.47;100.00;61586.06;6155960;23;20052;-74
2022/04/20 04:43:34;;;;;;;11.00;9.90;;;;;;;-144.47;100.00;61586.06;6155036;23;20071;-74
2022/04/20 04:49:06;;;;;;;14.80;10.68;;;;;;;-144.47;100.00;61586.06;6181905;23;20045;-74
2022/04/20 04:51:32;;;;;;;15.57;11.65;;;;;;;-144.47;100.00;61586.06;6180289;23;20556;-73
2022/04/20 04:53:58;;;;;;;13.35;11.55;;;;;;;-144.47;100.00;61586.06;6155711;23;20013;-73
2022/04/20 04:56:30;;;;;;;13.27;11.88;;;;;;;-144.47;100.00;61586.06;6180360;23;20067;-73
2022/04/20 04:58:56;;;;;;;19.40;12.07;;;;;;;-144.47;100.00;61586.06;6155684;23;20275;-74
2022/04/20 05:01:22;;;;;;;18.60;13.15;;;;;;;-144.47;100.00;61586.06;6155129;23;20017;-75
2022/04/20 05:03:48;;;;;;;20.25;14.30;;;;;;;-144.47;100.00;61586.06;6155445;23;20307;-75
2022/04/20 05:06:16;;;;;;;17.00;13.80;;;;;;;-144.47;100.00;61586.06;6155601;23;20311;-74
2022/04/20 05:08:58;;;;;;;14.88;13.20;;;;;;;-144.47;100.00;61586.06;6155904;23;20017;-74
2022/04/20 05:11:24;;;;;;;14.73;12.68;;;;;;;-144.47;100.00;61586.06;6181852;23;20465;-74
2022/04/20 05:13:49;;;;;;;16.98;12.90;;;;;;;-144.47;100.00;61586.06;6155465;23;20013;-75
2022/04/20 05:16:15;;;;;;;14.98;12.85;;;;;;;-144.47;100.00;61586.06;6154855;23;20080;-76
2022/04/20 05:18:41;;;;;;;14.63;13.10;;;;;;;-144.47;100.00;61586.06;6155221;23;20033;-76
2022/04/20 05:21:06;;;;;;;15.75;12.88;;;;;;;-144.47;100.00;61586.06;6180663;23;20019;-77
2022/04/20 05:23:32;;;;;;;15.68;13.52;;;;;;;-144.47;100.00;61586.06;6181145;23;20009;-80
2022/04/20 05:25:57;;;;;;;15.73;13.95;;;;;;;-144.47;100.00;61586.06;6184590;23;20016;-79
2022/04/20 05:28:23;;;;;;;16.45;12.88;;;;;;;-144.47;100.00;61586.06;6169877;23;20005;-82
2022/04/20 05:30:49;;;;;;;15.65;13.30;;;;;;;-144.47;100.00;61586.06;6177747;23;20024;-79
2022/04/20 05:33:15;;;;;;;16.98;12.70;;;;;;;-144.47;100.00;61586.06;6174510;23;20009;-83
2022/04/20 05:35:40;;;;;;;15.02;12.88;;;;;;;-144.47;100.00;61586.06;6179244;23;20472;-83
2022/04/20 05:43:42;;;;;;;14.32;12.63;;;;;;;-144.47;100.00;61586.06;6180186;23;20021;-81
2022/04/20 05:46:09;;;;;;;13.70;12.27;;;;;;;-144.47;100.00;61586.06;6178999;23;20020;-82
2022/04/20 05:48:43;;;;;;;15.20;13.27;;;;;;;-144.47;100.00;61586.06;6153316;23;20100;-82
2022/04/20 05:51:13;;;;;;;15.43;12.93;;;;;;;-144.47;100.00;61586.06;6153136;23;20024;-85
2022/04/20 05:53:39;;;;;;;14.77;13.18;;;;;;;-144.47;100.00;61586.06;6152585;23;20080;-83
2022/04/20 05:56:05;;;;;;;15.10;13.43;;;;;;;-144.47;100.00;61586.06;6177691;23;20092;-83
2022/04/20 05:58:32;;;;;;;16.33;13.25;;;;;;;-144.47;100.00;61586.06;6154060;23;20017;-83
2022/04/20 06:00:58;;;;;;;14.80;13.25;;;;;;;-144.47;100.00;61586.06;6155125;23;20055;-84
2022/04/20 06:03:42;;;;;;;19.55;13.50;;;;;;;-144.47;100.00;61586.06;6159484;23;20044;-79
2022/04/20 06:06:20;;;;;;;14.40;12.90;;;;;;;-144.47;100.00;61586.06;6155391;23;20013;-83
2022/04/20 06:08:48;;;;;;;13.95;12.43;;;;;;;-144.47;100.00;61586.06;6154365;23;20033;-84
2022/04/20 06:11:32;;;;;;;19.63;13.98;;;;;;;-144.47;100.00;61586.06;6182010;23;20020;-82
2022/04/20 06:13:58;;;;;;;17.67;14.02;;;;;;;-144.47;100.00;61586.06;6157533;23;20415;-80
2022/04/20 06:16:34;;;;;;;17.40;13.52;;;;;;;-144.47;100.00;61586.06;6181810;23;20020;-80
2022/04/20 06:19:07;;;;;;;14.63;13.20;;;;;;;-144.47;100.00;61586.06;6156518;23;20036;-79
2022/04/20 06:21:42;;;;;;;18.95;12.57;;;;;;;-144.47;100.00;61586.06;6155996;23;20009;-78
2022/04/20 06:24:18;;;;;;;17.45;13.35;;;;;;;-144.47;100.00;61586.06;6133750;23;20067;-79
2022/04/20 06:26:53;;;;;;;17.38;14.13;;;;;;;-144.47;100.00;61586.06;6134768;23;20028;-79
2022/04/20 06:29:45;;;;;;;17.08;12.52;;;;;;;-144.47;100.00;61586.06;6183328;23;20394;-79
2022/04/20 06:32:36;;;;;;;15.70;12.20;;;;;;;-144.47;100.00;61586.06;6175137;23;20291;-78
2022/04/20 06:35:31;;;;;;;16.20;12.50;;;;;;;-144.47;100.00;61586.06;6153055;23;20021;-80
2022/04/20 06:38:28;;;;;;;16.17;12.27;;;;;;;-144.47;100.00;61586.06;6175983;23;20049;-79
2022/04/20 06:41:24;;;;;;;14.18;12.35;;;;;;;-144.47;100.00;61586.06;6156119;23;20005;-79
2022/04/20 06:44:25;;;;;;;13.70;12.27;;;;;;;-144.47;100.00;61586.06;6122069;23;20448;-81
2022/04/20 06:47:10;;;;;;;14.50;12.88;;;;;;;-144.47;100.00;61586.06;6178559;23;20024;-80
2022/04/20 06:49:52;;;;;;;14.50;12.95;;;;;;;-144.47;100.00;61586.06;6157035;23;20013;-79
2022/04/20 07:00:51;;;;;;;15.25;12.93;;;;;;;-144.47;100.00;61586.06;6181334;23;20017;-80
2022/04/20 07:03:36;;;;;;;17.63;12.13;;;;;;;-144.47;100.00;61586.06;6156586;23;20024;-79
2022/04/20 07:06:34;;;;;;;20.80;12.60;;;;;;;-144.47;100.00;61586.06;6132287;23;20021;-79
2022/04/20 07:09:18;;;;;;;16.10;12.02;;;;;;;-144.47;100.00;61586.06;6178174;23;20468;-80
2022/04/20 07:11:57;;;;;;;18.30;13.68;;;;;;;-144.47;100.00;61586.06;6155783;23;20048;-81
2022/04/20 07:14:22;;;;;;;15.68;11.85;;;;;;;-144.47;100.00;61586.06;6155283;23;20016;-81
2022/04/20 07:16:49;;;;;;;14.60;11.27;;;;;;;-144.47;100.00;61586.06;6155648;23;20009;-79
2022/04/20 07:19:20;;;;;;;19.10;11.88;;;;;;;-144.47;100.00;61586.06;6155471;23;20009;-80
2022/04/20 07:22:05;;;;;;;15.55;12.27;;;;;;;-144.47;100.00;61586.06;6181695;23;20031;-79
2022/04/20 07:24:52;;;;;;;14.50;12.40;;;;;;;-144.47;100.00;61586.06;6180444;23;20050;-81
2022/04/20 07:27:52;;;;;;;11.88;10.70;;;;;;;-144.47;100.00;61586.06;6151037;23;20021;-82
2022/04/20 07:30:30;;;;;;;17.20;12.68;;;;;;;-144.47;100.00;61586.06;6191150;23;20016;-80
2022/04/20 07:33:25;;;;;;;13.25;11.85;;;;;;;-144.47;100.00;61586.06;6181873;23;20021;-80
2022/04/20 07:36:22;;;;;;;14.27;11.77;;;;;;;-144.47;100.00;61586.06;6165100;23;20021;-80
2022/04/20 07:39:06;;;;;;;16.92;11.77;;;;;;;-144.47;100.00;61586.06;6182428;23;20095;-81
2022/04/20 07:41:50;;;;;;;15.85;12.02;;;;;;;-144.47;100.00;61586.06;6181736;23;20028;-80
2022/04/20 07:44:34;;;;;;;12.90;11.57;;;;;;;-144.47;100.00;61586.06;6181234;23;20028;-78
2022/04/20 07:47:07;;;;;;;18.83;13.43;;;;;;;-144.47;100.00;61586.06;6155707;23;20008;-77
2022/04/20 07:53:07;;;;;;;16.92;12.40;;;;;;;-144.47;100.00;61586.06;6175791;23;20025;-79
2022/04/20 07:55:53;;;;;;;18.90;13.20;;;;;;;-144.47;100.00;61586.06;6157665;23;20048;-78
2022/04/20 07:58:28;;;;;;;17.60;14.93;;;;;;;-144.47;100.00;61586.06;6180977;23;20099;-77
2022/04/20 08:01:03;;;;;;;16.10;14.43;;;;;;;-144.47;100.00;61586.06;6182447;23;20009;-79
2022/04/20 08:03:32;;;;;;;16.73;13.88;;;;;;;-144.47;100.00;61586.06;6193006;23;20021;-80
2022/04/20 08:05:59;;;;;;;21.20;15.55;;;;;;;-144.47;100.00;61586.06;6162394;23;20342;-79
2022/04/20 08:08:26;;;;;;;21.77;15.70;;;;;;;-144.47;100.00;61586.06;6163195;23;20017;-81
2022/04/20 08:10:56;;;;;;;22.38;15.95;;;;;;;-144.47;100.00;61586.06;6158992;23;20496;-78
2022/04/20 08:16:12;;;;;;;27.42;16.20;;;;;;;-144.47;100.00;61586.06;6181955;23;20064;-79
2022/04/20 08:18:57;;;;;;;19.25;15.30;;;;;;;-144.47;100.00;61586.06;6184188;23;20025;-80
2022/04/20 08:21:44;;;;;;;18.75;15.32;;;;;;;-144.47;100.00;61586.06;6155269;23;20028;-78
2022/04/20 08:24:10;;;;;;;21.25;15.88;;;;;;;-144.47;100.00;61586.06;6154878;23;20017;-77
2022/04/20 08:26:35;;;;;;;19.10;16.33;;;;;;;-144.47;100.00;61586.06;6181494;23;20080;-78
2022/04/20 08:29:03;;;;;;;25.55;16.73;;;;;;;-144.47;100.00;61586.06;6182115;23;20009;-78
2022/04/20 08:31:28;;;;;;;21.45;15.52;;;;;;;-144.47;100.00;61586.06;6181562;23;20009;-77
2022/04/20 08:33:53;;;;;;;18.05;15.55;;;;;;;-144.47;100.00;61586.06;6181063;23;20100;-76
2022/04/20 08:39:44;;;;;;;19.13;15.88;;;;;;;-144.47;100.00;61586.06;6180670;23;20103;-77
2022/04/20 08:42:12;;;;;;;20.23;16.33;;;;;;;-144.47;100.00;61586.06;6181759;23;20411;-79
2022/04/20 08:44:44;;;;;;;23.10;15.35;;;;;;;-144.47;100.00;61586.06;6181301;23;20400;-79
2022/04/20 08:47:15;;;;;;;21.25;15.45;;;;;;;-144.47;100.00;61586.06;6181833;23;20020;-78
2022/04/20 08:49:43;;;;;;;23.38;16.20;;;;;;;-144.47;100.00;61586.06;6181630;23;20013;-80
2022/04/20 08:58:07;;;;;;;22.70;17.55;;;;;;;-144.47;100.00;61586.06;6181559;23;20392;-80
2022/04/20 09:00:33;;;;;;;28.17;17.52;;;;;;;-144.47;100.00;61586.06;6181423;23;20016;-77
2022/04/20 09:03:01;;;;;;;23.50;18.17;;;;;;;-144.47;100.00;61586.06;6154797;23;20012;-78
2022/04/20 09:05:28;;;;;;;25.25;17.77;;;;;;;-144.47;100.00;61586.06;6179354;23;20009;-78
2022/04/20 09:07:54;;;;;;;22.65;17.73;;;;;;;-144.47;100.00;61586.06;6187183;23;20059;-78
2022/04/20 09:10:21;;;;;;;23.00;17.88;;;;;;;-144.47;100.00;61586.06;6155327;23;20389;-81
2022/04/20 09:13:01;;;;;;;24.65;17.35;;;;;;;-144.47;100.00;61586.06;6183708;23;20028;-81
2022/04/20 09:15:32;;;;;;;23.90;18.35;;;;;;;-144.47;100.00;61586.06;6170334;23;20065;-80
2022/04/20 09:18:01;;;;;;;26.80;17.83;;;;;;;-144.47;100.00;61586.06;6194180;23;20013;-80
2022/04/20 09:20:26;;;;;;;26.88;17.90;;;;;;;-144.47;100.00;61586.06;6193927;23;20012;-78
2022/04/20 09:23:02;;;;;;;32.72;19.52;;;;;;;-144.47;100.00;61586.06;6192466;23;20017;-79
2022/04/20 09:25:34;;;;;;;29.00;18.15;;;;;;;-144.47;100.00;61586.06;6180663;23;20013;-78
2022/04/20 09:28:01;;;;;;;27.55;18.23;;;;;;;-144.47;100.00;61586.06;6181896;23;20059;-80
2022/04/20 09:30:38;;;;;;;27.33;18.73;;;;;;;-144.47;100.00;61586.06;6180957;23;20012;-79
2022/04/20 09:33:07;;;;;;;25.40;19.85;;;;;;;-144.47;100.00;61586.06;6156259;23;20039;-79
2022/04/20 09:35:44;;;;;;;22.70;17.58;;;;;;;-144.47;100.00;61586.06;6131462;23;20049;-77
2022/04/20 09:38:13;;;;;;;28.05;18.15;;;;;;;-144.47;100.00;61586.06;6156258;23;20131;-79
2022/04/20 09:41:09;;;;;;;23.88;20.15;;;;;;;-144.47;100.00;61586.06;6171282;23;20057;-78
2022/04/20 09:43:35;;;;;;;24.65;20.33;;;;;;;-144.47;100.00;61586.06;6156020;23;20618;-78
2022/04/20 09:46:03;;;;;;;21.50;18.50;;;;;;;-144.47;100.00;61586.06;6183861;23;20017;-81
2022/04/20 09:48:51;;;;;;;22.25;18.17;;;;;;;-144.47;100.00;61586.06;6157522;23;20012;-81
2022/04/20 09:51:21;;;;;;;21.88;18.90;;;;;;;-144.47;100.00;61586.06;6185389;23;20423;-80
2022/04/20 09:53:50;;;;;;;23.35;17.98;;;;;;;-144.47;100.00;61586.06;6158010;23;20378;-79
2022/04/20 09:56:16;;;;;;;22.55;18.58;;;;;;;-144.47;100.00;61586.06;6183026;23;20009;-81
2022/04/20 09:58:43;;;;;;;22.48;16.92;;;;;;;-144.47;100.00;61586.06;6182665;23;20016;-78
2022/04/20 10:01:23;;;;;;;23.33;16.92;;;;;;;-144.47;100.00;61586.06;6183272;23;20051;-79
2022/04/20 10:03:53;;;;;;;23.13;16.67;;;;;;;-144.47;100.00;61586.06;6183210;23;20020;-81
2022/04/20 10:06:22;;;;;;;19.33;15.23;;;;;;;-144.47;100.00;61586.06;6183569;23;20315;-82
2022/04/20 10:08:49;;;;;;;23.95;15.32;;;;;;;-144.47;100.00;61586.06;6184435;23;20013;-84
2022/04/20 10:11:15;;;;;;;18.92;13.77;;;;;;;-144.47;100.00;61586.06;6189422;23;20350;-89
2022/04/20 10:13:40;;;;;;;15.10;12.98;;;;;;;-144.47;100.00;61586.06;6209522;23;20020;-83
2022/04/20 10:16:09;;;;;;;16.67;13.60;;;;;;;-144.47;100.00;61586.06;6208831;23;20053;-86
2022/04/20 10:18:40;;;;;;;18.52;13.27;;;;;;;-144.47;100.00;61586.06;6209083;23;20085;-86
2022/04/20 10:21:14;;;;;;;15.43;13.77;;;;;;;-144.47;100.00;61586.06;6207431;23;20060;-88
2022/04/20 10:23:43;;;;;;;15.00;13.40;;;;;;;-144.47;100.00;61586.06;6211350;23;20017;-86
2022/04/20 10:26:10;;;;;;;19.02;14.25;;;;;;;-144.47;100.00;61586.06;6206750;23;20017;-85
2022/04/20 10:28:46;;;;;;;17.95;12.32;;;;;;;-144.47;100.00;61586.06;6185726;23;20439;-84
2022/04/20 10:31:38;;;;;;;14.98;12.82;;;;;;;-144.47;100.00;61586.06;6185741;23;20123;-80
2022/04/20 10:34:04;;;;;;;15.60;12.25;;;;;;;-144.47;100.00;61586.06;6158028;23;20062;-84
2022/04/20 10:36:40;;;;;;;15.13;12.38;;;;;;;-144.47;100.00;61586.06;6157970;23;20016;-87
2022/04/20 10:39:16;;;;;;;16.63;11.77;;;;;;;-144.47;100.00;61586.06;6158758;23;20013;-80
2022/04/20 10:42:23;;;;;;;15.77;12.18;;;;;;;-144.47;100.00;61586.06;6158009;23;20013;-81
2022/04/20 10:45:08;;;;;;;16.67;11.63;;;;;;;-144.47;100.00;61586.06;6156690;23;20379;-79
2022/04/20 10:47:35;;;;;;;19.55;11.55;;;;;;;-144.47;100.00;61586.06;6156863;23;20052;-82
2022/04/20 10:50:11;;;;;;;15.23;11.30;;;;;;;-144.47;100.00;61586.06;6184059;23;20399;-81
2022/04/20 10:52:41;;;;;;;14.15;10.82;;;;;;;-144.47;100.00;61586.06;6182539;23;20449;-85
2022/04/20 10:55:10;;;;;;;12.98;11.23;;;;;;;-144.47;100.00;61586.06;6156017;23;20346;-87
2022/04/20 10:57:39;;;;;;;25.17;12.57;;;;;;;-144.47;100.00;61586.06;6181101;23;20016;-83
2022/04/20 11:00:17;;;;;;;17.45;11.02;;;;;;;-144.47;100.00;61586.06;6181342;23;20017;-85
2022/04/20 11:02:53;;;;;;;13.65;10.35;;;;;;;-144.47;100.00;61586.06;6181686;23;20024;-85
2022/04/20 11:05:25;;;;;;;16.33;10.45;;;;;;;-144.47;100.00;61586.06;6182637;23;20345;-84
2022/04/20 11:08:03;;;;;;;14.30;11.73;;;;;;;-144.47;100.00;61586.06;6156645;23;20013;-81
2022/04/20 11:10:29;;;;;;;17.95;11.63;;;;;;;-144.47;100.00;61586.06;6179929;23;20354;-84
2022/04/20 11:19:12;;;;;;;16.33;11.27;;;;;;;-144.47;100.00;61586.06;6136187;23;20106;-84
2022/04/20 11:22:05;;;;;;;10.52;9.55;;;;;;;-144.47;100.00;61586.06;6134589;23;20100;-83
2022/04/20 11:24:30;;;;;;;10.50;9.38;;;;;;;-144.47;100.00;61586.06;6181672;23;20013;-84
2022/04/20 11:26:58;;;;;;;17.27;9.75;;;;;;;-144.47;100.00;61586.06;6181762;23;20088;-85
2022/04/20 11:29:28;;;;;;;13.60;9.90;;;;;;;-144.47;100.00;61586.06;6181120;23;20092;-84
2022/04/20 11:32:10;;;;;;;19.60;11.73;;;;;;;-144.47;100.00;61586.06;6181218;23;20037;-84
2022/04/20 11:35:04;;;;;;;17.60;10.80;;;;;;;-144.47;100.00;61586.06;6155753;23;20425;-84
2022/04/20 11:37:29;;;;;;;13.05;10.70;;;;;;;-144.47;100.00;61586.06;6154911;23;20481;-83
2022/04/20 11:39:56;;;;;;;14.63;10.10;;;;;;;-144.47;100.00;61586.06;6154561;23;20021;-85
2022/04/20 11:42:21;;;;;;;14.43;9.75;;;;;;;-144.47;100.00;61586.06;6180831;23;20017;-84
2022/04/20 11:44:47;;;;;;;14.73;10.07;;;;;;;-144.47;100.00;61586.06;6181611;23;20024;-83
2022/04/20 11:47:26;;;;;;;12.73;9.05;;;;;;;-144.47;100.00;61586.06;6178884;23;20028;-82
2022/04/20 11:49:55;;;;;;;14.02;9.68;;;;;;;-144.47;100.00;61586.06;6182267;23;20402;-80
2022/04/20 11:52:26;;;;;;;15.27;9.65;;;;;;;-144.47;100.00;61586.06;6129044;23;20013;-81
2022/04/20 11:55:15;;;;;;;13.98;9.48;;;;;;;-144.47;100.00;61586.06;6143716;23;20024;-81
2022/04/20 11:57:41;;;;;;;15.35;9.00;;;;;;;-144.47;100.00;61586.06;6181587;23;20020;-81
2022/04/20 12:00:07;;;;;;;12.50;9.23;;;;;;;-144.47;100.00;61586.06;6181553;23;20109;-79
2022/04/20 12:02:38;;;;;;;;;;;;;;;-144.47;100.00;61586.06;6183065;23;20005;-76
2022/04/20 12:05:09;;;;;;;11.27;9.25;;;;;;;-144.47;100.00;61586.06;6156912;23;19916;-79